Hlavní strana
METAR-TAF:

METAR-TAF

Letiště :

Kazaň, Rusko

zeměpisná šířka: 55-47N, zeměpisná délka: 049-12E, výška: 125 m

Aktuální stav počasí

Zpráva byla vytvořena před 48 minutami, v 01:00 UTC
Jihovýchodní vítr 6 kt
Teplota 9°C
Vlhkost vzduchu 76%
Tlak 1014 hPa
Viditelnost 10 km a více
Oblačno až skoro zataženo ve výšce 2600 ft

METAR: UWKD 180100Z 14003MPS 9999 BKN026 09/05 Q1014 R29/70D NOSIG RMK QFE750/1000

Čas: 04:48 (01:48 UTC)

Předpověď počasí

Zpráva byla vytvořena před 2 hodinami a 48 minutami, v 23:00 UTC
Předpověď platná od 18 v 00 UTC do 18 v 24 UTC
Jihozápadní vítr 10 kt s nárazy do 23 kt
Viditelnost 10 km a více
Oblačno až skoro zataženo ve výšce 2000 ft
Dočasný
od 18 v 06 UTC do 18 v 21 UTC
Západní vítr 6 kt
Viditelnost: 3100 m
Oblačno až skoro zataženo ve výšce 600 ft
Oblačno až skoro zataženo ve výšce 1300 ft, Cumulonimbus.
slabé dešťové přeháňky

TAF: UWKD 172300Z 1800/1824 23005G12MPS 9999 BKN020 TX11/1810Z TN07/1802Z TEMPO 1806/1821 26003MPS 3100 -SHRA BKN006 BKN013CB

Stav a předpovědi počasí z více než 4 000 letišť (zprávy METAR a TAF).

Červené a žluté tečky na mapě představují dostupné meteorologické stanice.

Když kurzor umístíte na tečku, zobrazí se název stanice.

Pak kliknutím zobrazíte stav a předpověď počasí.

Chcete-li změnit mapu, kliknutím na zelené tlačítko se znaménkem +mapu přiblížíte, kliknutím na zelené tlačítko se znaménkem – mapu oddálíte a kliknutím na zelené šipky přejdete na sousední mapy.


METAR-TAF: